sensor_id;sensor_type;location;lat;lon;timestamp;pressure;altitude;pressure_sealevel;temperature;humidity
42125;BME280;27787;44.594;11.046;2023-04-27T00:01:48;100984.72;;;13.40;75.56
42125;BME280;27787;44.594;11.046;2023-04-27T00:04:32;100985.63;;;13.34;75.78
42125;BME280;27787;44.594;11.046;2023-04-27T00:07:16;100987.38;;;13.27;76.03
42125;BME280;27787;44.594;11.046;2023-04-27T00:10:00;100995.34;;;13.18;76.36
42125;BME280;27787;44.594;11.046;2023-04-27T00:12:45;100990.00;;;13.11;76.79
42125;BME280;27787;44.594;11.046;2023-04-27T00:15:29;100990.00;;;13.09;77.40
42125;BME280;27787;44.594;11.046;2023-04-27T00:18:14;100990.00;;;13.11;77.00
42125;BME280;27787;44.594;11.046;2023-04-27T00:20:58;100984.69;;;13.06;77.13
42125;BME280;27787;44.594;11.046;2023-04-27T00:23:43;100982.06;;;13.03;77.39
42125;BME280;27787;44.594;11.046;2023-04-27T00:26:27;100977.63;;;13.02;76.98
42125;BME280;27787;44.594;11.046;2023-04-27T00:29:11;100978.50;;;13.01;77.13
42125;BME280;27787;44.594;11.046;2023-04-27T00:31:56;100980.28;;;13.05;76.54
42125;BME280;27787;44.594;11.046;2023-04-27T00:34:40;100967.03;;;13.11;75.18
42125;BME280;27787;44.594;11.046;2023-04-27T00:37:24;100966.13;;;13.12;74.12
42125;BME280;27787;44.594;11.046;2023-04-27T00:40:09;100970.56;;;13.06;74.28
42125;BME280;27787;44.594;11.046;2023-04-27T00:42:53;100974.97;;;12.93;74.94
42125;BME280;27787;44.594;11.046;2023-04-27T00:45:41;100976.72;;;12.79;75.46
42125;BME280;27787;44.594;11.046;2023-04-27T00:48:26;100973.16;;;12.70;75.90
42125;BME280;27787;44.594;11.046;2023-04-27T00:51:11;100982.88;;;12.68;75.80
42125;BME280;27787;44.594;11.046;2023-04-27T00:53:56;100978.47;;;12.74;74.67
42125;BME280;27787;44.594;11.046;2023-04-27T00:56:40;100980.22;;;12.72;73.23
42125;BME280;27787;44.594;11.046;2023-04-27T00:59:25;100982.88;;;12.68;72.70
42125;BME280;27787;44.594;11.046;2023-04-27T01:02:10;100985.50;;;12.55;72.66
42125;BME280;27787;44.594;11.046;2023-04-27T01:04:55;100996.03;;;12.43;73.11
42125;BME280;27787;44.594;11.046;2023-04-27T01:07:40;100990.69;;;12.36;73.14
42125;BME280;27787;44.594;11.046;2023-04-27T01:10:24;100992.47;;;12.30;73.86
42125;BME280;27787;44.594;11.046;2023-04-27T01:13:09;101002.16;;;12.26;73.78
42125;BME280;27787;44.594;11.046;2023-04-27T01:15:55;101010.94;;;12.19;74.20
42125;BME280;27787;44.594;11.046;2023-04-27T01:18:39;101007.38;;;12.13;74.17
42125;BME280;27787;44.594;11.046;2023-04-27T01:21:24;100997.66;;;12.08;74.64
42125;BME280;27787;44.594;11.046;2023-04-27T01:24:09;101000.34;;;12.13;74.62
42125;BME280;27787;44.594;11.046;2023-04-27T01:26:54;101004.75;;;12.13;73.99
42125;BME280;27787;44.594;11.046;2023-04-27T01:29:39;101006.47;;;12.09;74.05
42125;BME280;27787;44.594;11.046;2023-04-27T01:32:23;101002.94;;;12.05;73.90
42125;BME280;27787;44.594;11.046;2023-04-27T01:35:09;101011.75;;;12.04;74.50
42125;BME280;27787;44.594;11.046;2023-04-27T01:37:55;101008.28;;;12.12;75.23
42125;BME280;27787;44.594;11.046;2023-04-27T01:40:40;101004.75;;;12.19;74.58
42125;BME280;27787;44.594;11.046;2023-04-27T01:43:24;101015.31;;;12.13;74.80
42125;BME280;27787;44.594;11.046;2023-04-27T01:46:10;101015.28;;;12.05;76.00
42125;BME280;27787;44.594;11.046;2023-04-27T01:48:55;101015.28;;;12.05;77.78
42125;BME280;27787;44.594;11.046;2023-04-27T01:51:39;101022.31;;;12.01;79.58
42125;BME280;27787;44.594;11.046;2023-04-27T01:54:24;101021.38;;;11.90;79.49
42125;BME280;27787;44.594;11.046;2023-04-27T01:57:08;101013.44;;;11.90;79.85
42125;BME280;27787;44.594;11.046;2023-04-27T01:59:53;101016.06;;;11.89;79.49
42125;BME280;27787;44.594;11.046;2023-04-27T02:02:39;101022.19;;;11.85;80.37
42125;BME280;27787;44.594;11.046;2023-04-27T02:05:25;101023.00;;;11.76;80.59
42125;BME280;27787;44.594;11.046;2023-04-27T02:08:10;101027.31;;;11.62;80.57
42125;BME280;27787;44.594;11.046;2023-04-27T02:10:56;101030.69;;;11.42;81.02
42125;BME280;27787;44.594;11.046;2023-04-27T02:13:40;101034.94;;;11.25;81.58
42125;BME280;27787;44.594;11.046;2023-04-27T02:16:25;101033.09;;;11.15;82.68
42125;BME280;27787;44.594;11.046;2023-04-27T02:19:09;101037.44;;;11.10;83.37
42125;BME280;27787;44.594;11.046;2023-04-27T02:21:53;101033.97;;;11.15;83.63
42125;BME280;27787;44.594;11.046;2023-04-27T02:24:38;101042.78;;;11.14;82.98
42125;BME280;27787;44.594;11.046;2023-04-27T02:27:22;101045.31;;;11.04;83.42
42125;BME280;27787;44.594;11.046;2023-04-27T02:30:07;101045.38;;;11.10;83.84
42125;BME280;27787;44.594;11.046;2023-04-27T02:32:51;101048.03;;;11.13;83.77
42125;BME280;27787;44.594;11.046;2023-04-27T02:35:35;101047.19;;;11.17;83.91
42125;BME280;27787;44.594;11.046;2023-04-27T02:38:20;101053.47;;;11.28;83.26
42125;BME280;27787;44.594;11.046;2023-04-27T02:41:04;101054.34;;;11.30;83.39
42125;BME280;27787;44.594;11.046;2023-04-27T02:43:51;101051.81;;;11.41;82.85
42125;BME280;27787;44.594;11.046;2023-04-27T02:46:35;101067.69;;;11.42;82.38
42125;BME280;27787;44.594;11.046;2023-04-27T02:49:19;101057.06;;;11.36;83.39
42125;BME280;27787;44.594;11.046;2023-04-27T02:52:04;101065.03;;;11.42;82.47
42125;BME280;27787;44.594;11.046;2023-04-27T02:54:48;101072.91;;;11.33;81.87
42125;BME280;27787;44.594;11.046;2023-04-27T02:57:33;101064.91;;;11.29;83.39
42125;BME280;27787;44.594;11.046;2023-04-27T03:00:18;101074.59;;;11.27;82.61
42125;BME280;27787;44.594;11.046;2023-04-27T03:03:03;101074.50;;;11.19;82.73
42125;BME280;27787;44.594;11.046;2023-04-27T03:05:47;101079.78;;;11.19;82.68
42125;BME280;27787;44.594;11.046;2023-04-27T03:08:31;101091.16;;;11.09;82.54
42125;BME280;27787;44.594;11.046;2023-04-27T03:11:15;101080.47;;;10.97;84.05
42125;BME280;27787;44.594;11.046;2023-04-27T03:13:59;101081.28;;;10.92;83.97
42125;BME280;27787;44.594;11.046;2023-04-27T03:16:44;101085.63;;;10.86;84.81
42125;BME280;27787;44.594;11.046;2023-04-27T03:19:30;101083.84;;;10.85;85.06
42125;BME280;27787;44.594;11.046;2023-04-27T03:22:14;101086.50;;;10.86;85.53
42125;BME280;27787;44.594;11.046;2023-04-27T03:24:59;101092.78;;;10.96;84.77
42125;BME280;27787;44.594;11.046;2023-04-27T03:27:43;101102.47;;;10.94;84.17
42125;BME280;27787;44.594;11.046;2023-04-27T03:30:28;101097.13;;;10.92;84.48
42125;BME280;27787;44.594;11.046;2023-04-27T03:33:12;101105.91;;;10.88;83.78
42125;BME280;27787;44.594;11.046;2023-04-27T03:35:57;101099.59;;;10.79;85.44
42125;BME280;27787;44.594;11.046;2023-04-27T03:38:42;101105.72;;;10.73;85.97
42125;BME280;27787;44.594;11.046;2023-04-27T03:41:26;101116.25;;;10.70;86.36
42125;BME280;27787;44.594;11.046;2023-04-27T03:44:10;101110.03;;;10.67;86.64
42125;BME280;27787;44.594;11.046;2023-04-27T03:46:54;101117.03;;;10.63;87.19
42125;BME280;27787;44.594;11.046;2023-04-27T03:49:39;101117.00;;;10.61;87.86
42125;BME280;27787;44.594;11.046;2023-04-27T03:52:24;101119.63;;;10.60;87.75
42125;BME280;27787;44.594;11.046;2023-04-27T03:55:09;101120.50;;;10.59;88.46
42125;BME280;27787;44.594;11.046;2023-04-27T03:57:57;101123.28;;;10.70;88.23
42125;BME280;27787;44.594;11.046;2023-04-27T04:00:41;101120.59;;;10.67;88.11
42125;BME280;27787;44.594;11.046;2023-04-27T04:03:26;101127.72;;;10.74;87.74
42125;BME280;27787;44.594;11.046;2023-04-27T04:06:10;101136.53;;;10.76;87.64
42125;BME280;27787;44.594;11.046;2023-04-27T04:08:54;101133.00;;;10.74;87.15
42125;BME280;27787;44.594;11.046;2023-04-27T04:11:39;101134.75;;;10.73;87.17
42125;BME280;27787;44.594;11.046;2023-04-27T04:14:24;101142.63;;;10.69;86.90
42125;BME280;27787;44.594;11.046;2023-04-27T04:17:10;101141.69;;;10.65;87.11
42125;BME280;27787;44.594;11.046;2023-04-27T04:19:55;101135.53;;;10.66;87.11
42125;BME280;27787;44.594;11.046;2023-04-27T04:22:40;101142.56;;;10.64;86.90
42125;BME280;27787;44.594;11.046;2023-04-27T04:25:24;101139.94;;;10.66;87.37
42125;BME280;27787;44.594;11.046;2023-04-27T04:28:08;101137.28;;;10.64;87.65
42125;BME280;27787;44.594;11.046;2023-04-27T04:30:53;101140.81;;;10.66;87.90
42125;BME280;27787;44.594;11.046;2023-04-27T04:33:37;101139.16;;;10.73;87.77
42125;BME280;27787;44.594;11.046;2023-04-27T04:36:22;101137.56;;;10.85;87.42
42125;BME280;27787;44.594;11.046;2023-04-27T04:39:10;101146.53;;;11.00;87.11
42125;BME280;27787;44.594;11.046;2023-04-27T04:41:55;101148.44;;;11.13;86.13
42125;BME280;27787;44.594;11.046;2023-04-27T04:44:43;101144.81;;;11.05;85.90
42125;BME280;27787;44.594;11.046;2023-04-27T04:47:28;101157.16;;;11.06;86.33
42125;BME280;27787;44.594;11.046;2023-04-27T04:50:14;101159.78;;;11.06;86.21
42125;BME280;27787;44.594;11.046;2023-04-27T04:52:59;101156.31;;;11.07;86.47
42125;BME280;27787;44.594;11.046;2023-04-27T04:55:43;101160.63;;;11.02;86.29
42125;BME280;27787;44.594;11.046;2023-04-27T04:58:27;101162.34;;;10.95;86.19
42125;BME280;27787;44.594;11.046;2023-04-27T05:01:11;101170.19;;;10.90;86.81
42125;BME280;27787;44.594;11.046;2023-04-27T05:03:56;101170.22;;;10.93;86.51
42125;BME280;27787;44.594;11.046;2023-04-27T05:06:40;101172.78;;;10.87;85.63
42125;BME280;27787;44.594;11.046;2023-04-27T05:09:24;101180.69;;;10.84;85.68
42125;BME280;27787;44.594;11.046;2023-04-27T05:12:09;101179.78;;;10.82;85.82
42125;BME280;27787;44.594;11.046;2023-04-27T05:14:53;101180.72;;;10.87;85.91
42125;BME280;27787;44.594;11.046;2023-04-27T05:17:37;101187.88;;;10.95;85.33
42125;BME280;27787;44.594;11.046;2023-04-27T05:20:21;101190.53;;;10.98;84.70
42125;BME280;27787;44.594;11.046;2023-04-27T05:23:05;101189.63;;;10.96;84.38
42125;BME280;27787;44.594;11.046;2023-04-27T05:25:49;101196.63;;;10.93;84.36
42125;BME280;27787;44.594;11.046;2023-04-27T05:28:33;101190.44;;;10.91;84.73
42125;BME280;27787;44.594;11.046;2023-04-27T05:31:17;101186.03;;;10.92;84.98
42125;BME280;27787;44.594;11.046;2023-04-27T05:34:02;101194.91;;;10.94;84.95
42125;BME280;27787;44.594;11.046;2023-04-27T05:36:46;101190.53;;;10.98;83.63
42125;BME280;27787;44.594;11.046;2023-04-27T05:39:30;101196.69;;;10.98;82.60
42125;BME280;27787;44.594;11.046;2023-04-27T05:42:15;101203.00;;;11.08;81.37
42125;BME280;27787;44.594;11.046;2023-04-27T05:44:59;101201.31;;;11.17;81.03
42125;BME280;27787;44.594;11.046;2023-04-27T05:47:43;101204.06;;;11.23;80.90
42125;BME280;27787;44.594;11.046;2023-04-27T05:50:27;101210.31;;;11.32;80.75
42125;BME280;27787;44.594;11.046;2023-04-27T05:53:11;101212.19;;;11.43;79.48
42125;BME280;27787;44.594;11.046;2023-04-27T05:55:56;101222.84;;;11.49;78.10
42125;BME280;27787;44.594;11.046;2023-04-27T05:58:42;101219.41;;;11.58;77.71
42125;BME280;27787;44.594;11.046;2023-04-27T06:01:26;101226.59;;;11.70;77.71
42125;BME280;27787;44.594;11.046;2023-04-27T06:04:10;101227.53;;;11.76;76.92
42125;BME280;27787;44.594;11.046;2023-04-27T06:06:54;101228.41;;;11.74;74.19
42125;BME280;27787;44.594;11.046;2023-04-27T06:09:40;101241.56;;;11.71;72.51
42125;BME280;27787;44.594;11.046;2023-04-27T06:12:24;101240.69;;;11.69;72.21
42125;BME280;27787;44.594;11.046;2023-04-27T06:15:08;101244.22;;;11.69;73.05
42125;BME280;27787;44.594;11.046;2023-04-27T06:17:52;101241.63;;;11.72;73.64
42125;BME280;27787;44.594;11.046;2023-04-27T06:20:36;101235.56;;;11.84;73.91
42125;BME280;27787;44.594;11.046;2023-04-27T06:23:21;101229.50;;;11.93;74.15
42125;BME280;27787;44.594;11.046;2023-04-27T06:26:05;101224.28;;;12.02;75.40
42125;BME280;27787;44.594;11.046;2023-04-27T06:28:49;101223.47;;;12.10;74.86
42125;BME280;27787;44.594;11.046;2023-04-27T06:31:33;101221.78;;;12.22;74.90
42125;BME280;27787;44.594;11.046;2023-04-27T06:34:17;101223.63;;;12.26;74.36
42125;BME280;27787;44.594;11.046;2023-04-27T06:37:02;101225.41;;;12.30;74.45
42125;BME280;27787;44.594;11.046;2023-04-27T06:39:46;101228.13;;;12.39;74.51
42125;BME280;27787;44.594;11.046;2023-04-27T06:42:30;101230.81;;;12.45;73.92
42125;BME280;27787;44.594;11.046;2023-04-27T06:45:14;101243.16;;;12.46;74.14
42125;BME280;27787;44.594;11.046;2023-04-27T06:47:59;101231.75;;;12.50;74.45
42125;BME280;27787;44.594;11.046;2023-04-27T06:50:43;101231.75;;;12.55;74.61
42125;BME280;27787;44.594;11.046;2023-04-27T06:53:29;101232.69;;;12.61;74.50
42125;BME280;27787;44.594;11.046;2023-04-27T06:56:13;101236.25;;;12.63;74.78
42125;BME280;27787;44.594;11.046;2023-04-27T06:58:57;101234.50;;;12.65;74.99
42125;BME280;27787;44.594;11.046;2023-04-27T07:01:41;101230.09;;;12.67;75.12
42125;BME280;27787;44.594;11.046;2023-04-27T07:04:26;101236.28;;;12.69;75.69
42125;BME280;27787;44.594;11.046;2023-04-27T07:07:10;101228.34;;;12.71;76.50
42125;BME280;27787;44.594;11.046;2023-04-27T07:09:55;101230.16;;;12.78;77.23
42125;BME280;27787;44.594;11.046;2023-04-27T07:12:40;101234.59;;;12.88;77.86
42125;BME280;27787;44.594;11.046;2023-04-27T07:15:24;101224.09;;;13.02;77.07
42125;BME280;27787;44.594;11.046;2023-04-27T07:18:09;101228.53;;;13.09;76.68
42125;BME280;27787;44.594;11.046;2023-04-27T07:20:55;101231.22;;;13.17;76.72
42125;BME280;27787;44.594;11.046;2023-04-27T07:23:40;101229.50;;;13.23;76.81
42125;BME280;27787;44.594;11.046;2023-04-27T07:26:25;101229.50;;;13.28;76.86
42125;BME280;27787;44.594;11.046;2023-04-27T07:29:10;101232.22;;;13.34;75.79
42125;BME280;27787;44.594;11.046;2023-04-27T07:31:55;101233.97;;;13.38;75.58
42125;BME280;27787;44.594;11.046;2023-04-27T07:34:40;101227.84;;;13.42;74.82
42125;BME280;27787;44.594;11.046;2023-04-27T07:37:24;101232.25;;;13.48;75.18
42125;BME280;27787;44.594;11.046;2023-04-27T07:40:09;101226.09;;;13.55;75.26
42125;BME280;27787;44.594;11.046;2023-04-27T07:42:59;101228.75;;;13.61;74.66
42125;BME280;27787;44.594;11.046;2023-04-27T07:45:43;101225.22;;;13.67;74.67
42125;BME280;27787;44.594;11.046;2023-04-27T07:48:28;101229.66;;;13.74;73.83
42125;BME280;27787;44.594;11.046;2023-04-27T07:51:13;101228.81;;;13.82;73.97
42125;BME280;27787;44.594;11.046;2023-04-27T07:53:59;101227.91;;;13.90;73.31
42125;BME280;27787;44.594;11.046;2023-04-27T07:56:43;101235.91;;;13.99;72.93
42125;BME280;27787;44.594;11.046;2023-04-27T07:59:28;101225.28;;;14.06;72.91
42125;BME280;27787;44.594;11.046;2023-04-27T08:02:13;101227.06;;;14.21;73.53
42125;BME280;27787;44.594;11.046;2023-04-27T08:04:56;101235.91;;;14.28;72.86
42125;BME280;27787;44.594;11.046;2023-04-27T08:07:40;101233.25;;;14.32;74.61
42125;BME280;27787;44.594;11.046;2023-04-27T08:10:25;101226.19;;;14.24;74.78
42125;BME280;27787;44.594;11.046;2023-04-27T08:13:10;101236.78;;;14.22;74.74
42125;BME280;27787;44.594;11.046;2023-04-27T08:15:55;101231.47;;;14.25;74.83
42125;BME280;27787;44.594;11.046;2023-04-27T08:18:43;101241.22;;;14.34;75.43
42125;BME280;27787;44.594;11.046;2023-04-27T08:21:27;101238.56;;;14.44;74.40
42125;BME280;27787;44.594;11.046;2023-04-27T08:24:11;101226.19;;;14.51;74.15
42125;BME280;27787;44.594;11.046;2023-04-27T08:26:55;101230.59;;;14.61;74.93
42125;BME280;27787;44.594;11.046;2023-04-27T08:29:44;101233.22;;;14.69;74.89
42125;BME280;27787;44.594;11.046;2023-04-27T08:32:30;101229.69;;;14.74;75.36
42125;BME280;27787;44.594;11.046;2023-04-27T08:35:14;101234.97;;;14.82;75.52
42125;BME280;27787;44.594;11.046;2023-04-27T08:37:59;101236.75;;;14.86;75.71
42125;BME280;27787;44.594;11.046;2023-04-27T08:40:44;101237.59;;;15.00;77.25
42125;BME280;27787;44.594;11.046;2023-04-27T08:43:35;101232.28;;;14.99;77.64
42125;BME280;27787;44.594;11.046;2023-04-27T08:46:20;101235.81;;;15.02;78.14
42125;BME280;27787;44.594;11.046;2023-04-27T08:49:05;101237.56;;;15.05;77.70
42125;BME280;27787;44.594;11.046;2023-04-27T08:51:50;101234.91;;;15.11;78.63
42125;BME280;27787;44.594;11.046;2023-04-27T08:54:34;101229.53;;;15.17;78.83
42125;BME280;27787;44.594;11.046;2023-04-27T08:57:18;101237.50;;;15.22;78.83
42125;BME280;27787;44.594;11.046;2023-04-27T09:00:02;101234.84;;;15.25;78.77
42125;BME280;27787;44.594;11.046;2023-04-27T09:02:56;101242.78;;;15.32;79.37
42125;BME280;27787;44.594;11.046;2023-04-27T09:05:45;101233.88;;;15.40;79.81
42125;BME280;27787;44.594;11.046;2023-04-27T09:08:46;101242.72;;;15.46;79.95
42125;BME280;27787;44.594;11.046;2023-04-27T09:11:36;101240.91;;;15.54;79.75
42125;BME280;27787;44.594;11.046;2023-04-27T09:14:22;101243.53;;;15.59;79.34
42125;BME280;27787;44.594;11.046;2023-04-27T09:17:06;101250.63;;;15.68;79.08
42125;BME280;27787;44.594;11.046;2023-04-27T09:19:51;101244.38;;;15.72;78.39
42125;BME280;27787;44.594;11.046;2023-04-27T09:22:42;101237.31;;;15.69;78.34
42125;BME280;27787;44.594;11.046;2023-04-27T09:25:29;101244.38;;;15.70;77.78
42125;BME280;27787;44.594;11.046;2023-04-27T09:28:14;101229.31;;;15.71;77.16
42125;BME280;27787;44.594;11.046;2023-04-27T09:31:01;101245.25;;;15.77;78.07
42125;BME280;27787;44.594;11.046;2023-04-27T09:33:53;101239.91;;;15.80;77.83
42125;BME280;27787;44.594;11.046;2023-04-27T09:36:38;101238.97;;;15.85;77.87
42125;BME280;27787;44.594;11.046;2023-04-27T09:39:23;101231.81;;;15.95;77.61
42125;BME280;27787;44.594;11.046;2023-04-27T09:42:07;101227.31;;;16.00;76.52
42125;BME280;27787;44.594;11.046;2023-04-27T09:44:53;101229.91;;;16.09;76.65
42125;BME280;27787;44.594;11.046;2023-04-27T09:47:37;101226.31;;;16.16;76.59
42125;BME280;27787;44.594;11.046;2023-04-27T09:50:21;101231.53;;;16.27;75.35
42125;BME280;27787;44.594;11.046;2023-04-27T09:53:09;101225.28;;;16.33;73.76
42125;BME280;27787;44.594;11.046;2023-04-27T10:01:56;101217.88;;;16.64;73.86
42125;BME280;27787;44.594;11.046;2023-04-27T10:07:53;101212.31;;;16.88;72.43
42125;BME280;27787;44.594;11.046;2023-04-27T10:10:47;101210.50;;;16.92;71.60
42125;BME280;27787;44.594;11.046;2023-04-27T10:13:31;101205.16;;;16.95;70.95
42125;BME280;27787;44.594;11.046;2023-04-27T10:16:16;101207.66;;;17.08;70.13
42125;BME280;27787;44.594;11.046;2023-04-27T10:19:08;101205.81;;;17.12;69.31
42125;BME280;27787;44.594;11.046;2023-04-27T10:21:59;101204.84;;;17.16;69.25
42125;BME280;27787;44.594;11.046;2023-04-27T10:24:49;101195.00;;;17.24;68.94
42125;BME280;27787;44.594;11.046;2023-04-27T10:27:38;101202.88;;;17.33;68.06
42125;BME280;27787;44.594;11.046;2023-04-27T10:30:25;101188.47;;;17.44;66.48
42125;BME280;27787;44.594;11.046;2023-04-27T10:33:10;101193.59;;;17.60;61.64
42125;BME280;27787;44.594;11.046;2023-04-27T10:35:57;101198.06;;;17.57;62.61
42125;BME280;27787;44.594;11.046;2023-04-27T10:38:41;101190.94;;;17.57;62.95
42125;BME280;27787;44.594;11.046;2023-04-27T10:41:33;101186.50;;;17.59;63.68
42125;BME280;27787;44.594;11.046;2023-04-27T10:44:26;101184.59;;;17.66;64.23
42125;BME280;27787;44.594;11.046;2023-04-27T10:47:15;101177.34;;;17.77;62.94
42125;BME280;27787;44.594;11.046;2023-04-27T10:50:01;101171.09;;;17.78;62.53
42125;BME280;27787;44.594;11.046;2023-04-27T10:52:46;101178.97;;;17.87;62.73
42125;BME280;27787;44.594;11.046;2023-04-27T10:55:30;101178.81;;;17.96;61.59
42125;BME280;27787;44.594;11.046;2023-04-27T10:58:21;101183.16;;;18.04;60.81
42125;BME280;27787;44.594;11.046;2023-04-27T11:01:07;101181.28;;;18.10;60.38
42125;BME280;27787;44.594;11.046;2023-04-27T11:03:59;101175.75;;;18.19;60.25
42125;BME280;27787;44.594;11.046;2023-04-27T11:06:44;101176.50;;;18.27;59.93
42125;BME280;27787;44.594;11.046;2023-04-27T11:09:30;101174.59;;;18.34;58.95
42125;BME280;27787;44.594;11.046;2023-04-27T11:12:14;101172.69;;;18.42;59.02
42125;BME280;27787;44.594;11.046;2023-04-27T11:14:58;101171.63;;;18.51;58.32
42125;BME280;27787;44.594;11.046;2023-04-27T11:17:43;101163.53;;;18.54;56.19
42125;BME280;27787;44.594;11.046;2023-04-27T11:20:27;101169.75;;;18.56;54.47
42125;BME280;27787;44.594;11.046;2023-04-27T11:23:29;101172.31;;;18.64;54.19
42125;BME280;27787;44.594;11.046;2023-04-27T11:26:21;101156.91;;;18.75;54.56
42125;BME280;27787;44.594;11.046;2023-04-27T11:29:07;101164.88;;;18.79;54.14
42125;BME280;27787;44.594;11.046;2023-04-27T11:31:58;101168.53;;;18.74;52.51
42125;BME280;27787;44.594;11.046;2023-04-27T11:34:51;101172.09;;;18.74;51.66
42125;BME280;27787;44.594;11.046;2023-04-27T11:37:36;101160.19;;;18.91;49.92
42125;BME280;27787;44.594;11.046;2023-04-27T11:40:19;101169.03;;;18.94;49.38
42125;BME280;27787;44.594;11.046;2023-04-27T11:43:04;101171.63;;;18.97;49.58
42125;BME280;27787;44.594;11.046;2023-04-27T11:45:48;101162.50;;;19.07;50.71
42125;BME280;27787;44.594;11.046;2023-04-27T11:48:37;101164.09;;;19.16;50.36
42125;BME280;27787;44.594;11.046;2023-04-27T11:51:23;101163.84;;;19.27;49.49
42125;BME280;27787;44.594;11.046;2023-04-27T11:54:08;101172.69;;;19.32;49.38
42125;BME280;27787;44.594;11.046;2023-04-27T11:57:03;101165.50;;;19.34;49.07
42125;BME280;27787;44.594;11.046;2023-04-27T11:59:48;101170.69;;;19.40;48.85
42125;BME280;27787;44.594;11.046;2023-04-27T12:02:32;101165.19;;;19.48;48.94
42125;BME280;27787;44.594;11.046;2023-04-27T12:05:16;101166.81;;;19.56;48.60
42125;BME280;27787;44.594;11.046;2023-04-27T12:08:01;101171.03;;;19.65;48.88
42125;BME280;27787;44.594;11.046;2023-04-27T12:10:46;101176.34;;;19.68;47.60
42125;BME280;27787;44.594;11.046;2023-04-27T12:13:30;101174.59;;;19.67;46.17
42125;BME280;27787;44.594;11.046;2023-04-27T12:16:14;101171.84;;;19.70;45.45
42125;BME280;27787;44.594;11.046;2023-04-27T12:18:58;101171.00;;;19.68;44.96
42125;BME280;27787;44.594;11.046;2023-04-27T12:21:42;101167.38;;;19.70;44.87
42125;BME280;27787;44.594;11.046;2023-04-27T12:24:27;101173.56;;;19.72;44.91
42125;BME280;27787;44.594;11.046;2023-04-27T12:27:11;101166.19;;;19.82;45.04
42125;BME280;27787;44.594;11.046;2023-04-27T12:29:55;101162.38;;;19.91;45.30
42125;BME280;27787;44.594;11.046;2023-04-27T12:32:42;101164.88;;;19.98;45.21
42125;BME280;27787;44.594;11.046;2023-04-27T12:35:26;101156.66;;;20.06;45.49
42125;BME280;27787;44.594;11.046;2023-04-27T12:38:14;101158.28;;;20.12;45.80
42125;BME280;27787;44.594;11.046;2023-04-27T12:41:00;101148.38;;;20.15;46.28
42125;BME280;27787;44.594;11.046;2023-04-27T12:43:45;101150.16;;;20.15;46.54
42125;BME280;27787;44.594;11.046;2023-04-27T12:46:29;101154.72;;;20.11;46.85
42125;BME280;27787;44.594;11.046;2023-04-27T12:49:14;101146.84;;;20.05;47.00
42125;BME280;27787;44.594;11.046;2023-04-27T12:51:58;101145.28;;;19.96;47.01
42125;BME280;27787;44.594;11.046;2023-04-27T12:54:43;101156.19;;;19.89;47.20
42125;BME280;27787;44.594;11.046;2023-04-27T12:57:27;101151.66;;;19.91;47.95
42125;BME280;27787;44.594;11.046;2023-04-27T13:00:12;101147.03;;;19.97;48.07
42125;BME280;27787;44.594;11.046;2023-04-27T13:02:56;101146.78;;;20.08;48.53
42125;BME280;27787;44.594;11.046;2023-04-27T13:05:41;101148.41;;;20.14;48.20
42125;BME280;27787;44.594;11.046;2023-04-27T13:08:25;101150.91;;;20.21;47.65
42125;BME280;27787;44.594;11.046;2023-04-27T13:11:09;101161.50;;;20.26;47.35
42125;BME280;27787;44.594;11.046;2023-04-27T13:13:53;101156.09;;;20.27;47.78
42125;BME280;27787;44.594;11.046;2023-04-27T13:16:41;101153.34;;;20.29;47.51
42125;BME280;27787;44.594;11.046;2023-04-27T13:19:25;101146.25;;;20.28;47.41
42125;BME280;27787;44.594;11.046;2023-04-27T13:22:09;101145.38;;;20.27;47.31
42125;BME280;27787;44.594;11.046;2023-04-27T13:24:54;101137.19;;;20.33;47.42
42125;BME280;27787;44.594;11.046;2023-04-27T13:27:38;101141.38;;;20.44;47.46
42125;BME280;27787;44.594;11.046;2023-04-27T13:30:22;101147.38;;;20.53;47.28
42125;BME280;27787;44.594;11.046;2023-04-27T13:33:09;101139.91;;;20.65;47.77
42125;BME280;27787;44.594;11.046;2023-04-27T13:35:55;101152.16;;;20.75;48.21
42125;BME280;27787;44.594;11.046;2023-04-27T13:38:39;101137.56;;;20.85;48.12
42125;BME280;27787;44.594;11.046;2023-04-27T13:41:25;101153.31;;;20.97;48.20
42125;BME280;27787;44.594;11.046;2023-04-27T13:44:09;101150.41;;;21.03;48.21
42125;BME280;27787;44.594;11.046;2023-04-27T13:46:53;101139.63;;;21.05;48.39
42125;BME280;27787;44.594;11.046;2023-04-27T13:49:37;101135.28;;;21.01;48.12
42125;BME280;27787;44.594;11.046;2023-04-27T13:52:22;101141.53;;;21.01;47.93
42125;BME280;27787;44.594;11.046;2023-04-27T13:55:08;101148.44;;;21.10;47.79
42125;BME280;27787;44.594;11.046;2023-04-27T13:57:52;101145.38;;;21.22;47.44
42125;BME280;27787;44.594;11.046;2023-04-27T14:00:36;101141.50;;;21.32;47.32
42125;BME280;27787;44.594;11.046;2023-04-27T14:03:21;101143.19;;;21.36;46.73
42125;BME280;27787;44.594;11.046;2023-04-27T14:06:05;101136.75;;;21.42;46.40
42125;BME280;27787;44.594;11.046;2023-04-27T14:08:50;101132.34;;;21.39;45.88
42125;BME280;27787;44.594;11.046;2023-04-27T14:11:34;101138.16;;;21.26;46.09
42125;BME280;27787;44.594;11.046;2023-04-27T14:14:18;101129.88;;;21.02;46.44
42125;BME280;27787;44.594;11.046;2023-04-27T14:17:03;101135.66;;;20.88;46.96
42125;BME280;27787;44.594;11.046;2023-04-27T14:19:47;101132.91;;;20.90;47.18
42125;BME280;27787;44.594;11.046;2023-04-27T14:22:32;101136.03;;;21.06;46.90